Youngstown, Canada
Current Conditions -  °F | °C
As of 12:00 PM on Tuesday 21 Oct 2014 (Local Time) from CYKY Reporting Station
Broken Clouds Broken Clouds  
Wind Chill: 63°   Ceiling: 5000
Heat Index: 63°   Visibility: 15mi
Dew Point: 37°   Wind: 5mph
Humidity: 39%   Direction: 300°WNW
Pressure: 29.57"   Gusts: NA
Location:  51.53°N, 111.2°W
Report Text: CYKY 211800Z 30004KT 250V320 15SM BKN050 BKN090 17/03 A2957 RMK SC6AC1 SLP018 DENSITY ALT 3400FT
Loading
Personal Weather Stations






























Interactive Weather Map
Tropical Storm Tracking
New forecast layout! Learn more

10-Day Weather Forecast

Advertisements
Track Severe Weather on mobile